Orbital elements of PSLV DEB
| Launched | 21 October 2001 |
| Flight ended | – |
| Launch site | Satish Dhawan Space Centre, India (Formerly Sriharikota Launching Range) |
| Owner | India |
| NORAD ID | 27142 |
| Date fetched |
Epoch osculation |
Inc. [°] |
Ecc. | RA asc node [hr] |
Arg Peri. [°] |
Mean anom [°] |
Mean motion [rev/day] |
Abs. mag |
| Date fetched |
Epoch osculation |
Inc. [°] |
Ecc. | RA asc node [hr] |
Arg Peri. [°] |
Mean anom [°] |
Mean motion [rev/day] |
Abs. mag |
| 2026 May 09 17:57 | 2026 May 05 09:57:08 | 97.3631 | 0.02747 | 11.6450 | 317.6122 | 40.4119 | 14.13731 | – |
| 2026 May 08 17:57 | 2026 May 05 09:57:08 | 97.3631 | 0.02747 | 11.6450 | 317.6122 | 40.4119 | 14.13731 | – |
| 2026 May 07 17:58 | 2026 May 05 09:57:08 | 97.3631 | 0.02747 | 11.6450 | 317.6122 | 40.4119 | 14.13731 | – |
| 2026 May 06 17:57 | 2026 May 05 09:57:08 | 97.3631 | 0.02747 | 11.6450 | 317.6122 | 40.4119 | 14.13731 | – |
| 2026 May 05 17:57 | 2026 May 05 09:57:08 | 97.3631 | 0.02747 | 11.6450 | 317.6122 | 40.4119 | 14.13731 | – |
| 2026 May 04 17:57 | 2026 Apr 30 09:21:11 | 97.3640 | 0.02750 | 11.3683 | 332.5363 | 40.4119 | 14.13731 | – |
| 2026 May 03 17:57 | 2026 Apr 30 09:21:11 | 97.3640 | 0.02750 | 11.3683 | 332.5363 | 40.4119 | 14.13731 | – |
| 2026 May 02 17:57 | 2026 Apr 30 09:21:11 | 97.3640 | 0.02750 | 11.3683 | 332.5363 | 40.4119 | 14.13731 | – |
| 2026 May 01 17:56 | 2026 Apr 30 09:21:11 | 97.3640 | 0.02750 | 11.3683 | 332.5363 | 40.4119 | 14.13731 | – |
| 2026 Apr 30 17:56 | 2026 Apr 30 09:21:11 | 97.3640 | 0.02750 | 11.3683 | 332.5363 | 40.4119 | 14.13731 | – |
| 2026 Apr 29 17:57 | 2026 Apr 23 02:23:56 | 97.3655 | 0.02755 | 10.9669 | 354.1522 | 40.4119 | 14.13731 | – |
| 2026 Apr 28 17:56 | 2026 Apr 23 02:23:56 | 97.3655 | 0.02755 | 10.9669 | 354.1522 | 40.4119 | 14.13731 | – |
| 2026 Apr 27 17:58 | 2026 Apr 23 02:23:56 | 97.3655 | 0.02755 | 10.9669 | 354.1522 | 40.4119 | 14.13731 | – |
| 2026 Apr 26 17:58 | 2026 Apr 23 02:23:56 | 97.3655 | 0.02755 | 10.9669 | 354.1522 | 40.4119 | 14.13731 | – |
| 2026 Apr 25 17:58 | 2026 Apr 23 02:23:56 | 97.3655 | 0.02755 | 10.9669 | 354.1522 | 40.4119 | 14.13731 | – |
| 2026 Apr 24 17:59 | 2026 Apr 23 02:23:56 | 97.3655 | 0.02755 | 10.9669 | 354.1522 | 40.4119 | 14.13731 | – |
| 2026 Apr 23 17:57 | 2026 Apr 18 15:23:16 | 97.3657 | 0.02759 | 10.7214 | 7.3653 | 40.4119 | 14.13731 | – |
| 2026 Apr 22 17:57 | 2026 Apr 18 15:23:16 | 97.3657 | 0.02759 | 10.7214 | 7.3653 | 40.4119 | 14.13731 | – |
| 2026 Apr 21 17:57 | 2026 Apr 18 15:23:16 | 97.3657 | 0.02759 | 10.7214 | 7.3653 | 40.4119 | 14.13731 | – |
| 2026 Apr 20 17:57 | 2026 Apr 18 15:23:16 | 97.3657 | 0.02759 | 10.7214 | 7.3653 | 40.4119 | 14.13731 | – |
| 2026 Apr 19 17:58 | 2026 Apr 18 15:23:16 | 97.3657 | 0.02759 | 10.7214 | 7.3653 | 40.4119 | 14.13731 | – |
| 2026 Apr 18 17:56 | 2026 Apr 13 02:53:50 | 97.3670 | 0.02764 | 10.4174 | 23.6923 | 40.4119 | 14.13731 | – |
| 2026 Apr 16 17:57 | 2026 Apr 13 02:53:50 | 97.3670 | 0.02764 | 10.4174 | 23.6923 | 40.4119 | 14.13731 | – |
| 2026 Apr 14 17:57 | 2026 Apr 13 02:53:50 | 97.3670 | 0.02764 | 10.4174 | 23.6923 | 40.4119 | 14.13731 | – |
| 2026 Apr 13 17:57 | 2026 Apr 13 02:53:50 | 97.3670 | 0.02764 | 10.4174 | 23.6923 | 40.4119 | 14.13731 | – |
| 2026 Apr 12 17:57 | 2026 Apr 08 14:11:11 | 97.3673 | 0.02767 | 10.1678 | 37.0602 | 40.4119 | 14.13731 | – |